sensor_id;sensor_type;location;lat;lon;timestamp;P1;durP1;ratioP1;P2;durP2;ratioP2
27893;SDS011;15240;50.812;4.792;2023-03-12T00:00:45;17.87;;;9.47;;
27893;SDS011;15240;50.812;4.792;2023-03-12T00:03:12;15.93;;;9.63;;
27893;SDS011;15240;50.812;4.792;2023-03-12T00:05:39;14.87;;;9.37;;
27893;SDS011;15240;50.812;4.792;2023-03-12T00:08:05;15.33;;;9.77;;
27893;SDS011;15240;50.812;4.792;2023-03-12T00:10:32;16.40;;;9.50;;
27893;SDS011;15240;50.812;4.792;2023-03-12T00:12:58;14.27;;;9.33;;
27893;SDS011;15240;50.812;4.792;2023-03-12T00:15:24;15.37;;;9.03;;
27893;SDS011;15240;50.812;4.792;2023-03-12T00:17:50;18.03;;;9.20;;
27893;SDS011;15240;50.812;4.792;2023-03-12T00:20:16;17.27;;;9.00;;
27893;SDS011;15240;50.812;4.792;2023-03-12T00:22:42;16.07;;;8.97;;
27893;SDS011;15240;50.812;4.792;2023-03-12T00:25:11;17.60;;;9.17;;
27893;SDS011;15240;50.812;4.792;2023-03-12T00:27:37;17.73;;;9.43;;
27893;SDS011;15240;50.812;4.792;2023-03-12T00:30:03;16.77;;;9.10;;
27893;SDS011;15240;50.812;4.792;2023-03-12T00:32:31;16.97;;;9.20;;
27893;SDS011;15240;50.812;4.792;2023-03-12T00:34:57;17.00;;;9.77;;
27893;SDS011;15240;50.812;4.792;2023-03-12T00:37:23;15.60;;;8.63;;
27893;SDS011;15240;50.812;4.792;2023-03-12T00:39:49;19.67;;;9.00;;
27893;SDS011;15240;50.812;4.792;2023-03-12T00:42:16;17.40;;;9.47;;
27893;SDS011;15240;50.812;4.792;2023-03-12T00:44:43;17.50;;;9.07;;
27893;SDS011;15240;50.812;4.792;2023-03-12T00:47:10;18.37;;;8.57;;
27893;SDS011;15240;50.812;4.792;2023-03-12T00:49:36;13.13;;;9.27;;
27893;SDS011;15240;50.812;4.792;2023-03-12T00:52:02;16.13;;;8.13;;
27893;SDS011;15240;50.812;4.792;2023-03-12T00:54:28;13.70;;;9.17;;
27893;SDS011;15240;50.812;4.792;2023-03-12T00:56:54;14.37;;;8.70;;
27893;SDS011;15240;50.812;4.792;2023-03-12T00:59:20;15.97;;;8.30;;
27893;SDS011;15240;50.812;4.792;2023-03-12T01:01:47;14.27;;;9.03;;
27893;SDS011;15240;50.812;4.792;2023-03-12T01:04:13;14.70;;;8.50;;
27893;SDS011;15240;50.812;4.792;2023-03-12T01:06:39;14.07;;;8.20;;
27893;SDS011;15240;50.812;4.792;2023-03-12T01:09:05;14.87;;;7.77;;
27893;SDS011;15240;50.812;4.792;2023-03-12T01:11:33;13.60;;;7.77;;
27893;SDS011;15240;50.812;4.792;2023-03-12T01:13:59;11.57;;;7.37;;
27893;SDS011;15240;50.812;4.792;2023-03-12T01:16:26;12.37;;;7.33;;
27893;SDS011;15240;50.812;4.792;2023-03-12T01:18:54;11.67;;;6.00;;
27893;SDS011;15240;50.812;4.792;2023-03-12T01:21:20;10.67;;;5.90;;
27893;SDS011;15240;50.812;4.792;2023-03-12T01:23:46;9.60;;;5.23;;
27893;SDS011;15240;50.812;4.792;2023-03-12T01:26:13;9.47;;;5.30;;
27893;SDS011;15240;50.812;4.792;2023-03-12T01:28:39;14.33;;;5.20;;
27893;SDS011;15240;50.812;4.792;2023-03-12T01:31:08;13.03;;;4.87;;
27893;SDS011;15240;50.812;4.792;2023-03-12T01:33:34;9.70;;;4.20;;
27893;SDS011;15240;50.812;4.792;2023-03-12T01:36:00;9.90;;;4.63;;
27893;SDS011;15240;50.812;4.792;2023-03-12T01:38:26;11.47;;;4.87;;
27893;SDS011;15240;50.812;4.792;2023-03-12T01:40:52;9.47;;;4.60;;
27893;SDS011;15240;50.812;4.792;2023-03-12T01:48:23;8.17;;;4.17;;
27893;SDS011;15240;50.812;4.792;2023-03-12T01:50:50;12.87;;;4.60;;
27893;SDS011;15240;50.812;4.792;2023-03-12T01:53:16;8.07;;;4.57;;
27893;SDS011;15240;50.812;4.792;2023-03-12T01:55:42;9.73;;;5.10;;
27893;SDS011;15240;50.812;4.792;2023-03-12T01:58:08;8.53;;;4.93;;
27893;SDS011;15240;50.812;4.792;2023-03-12T02:00:35;10.50;;;5.27;;
27893;SDS011;15240;50.812;4.792;2023-03-12T02:03:03;14.43;;;5.20;;
27893;SDS011;15240;50.812;4.792;2023-03-12T02:07:59;10.07;;;4.90;;
27893;SDS011;15240;50.812;4.792;2023-03-12T02:10:25;10.13;;;5.00;;
27893;SDS011;15240;50.812;4.792;2023-03-12T02:12:52;9.83;;;5.23;;
27893;SDS011;15240;50.812;4.792;2023-03-12T02:15:18;12.90;;;5.63;;
27893;SDS011;15240;50.812;4.792;2023-03-12T02:17:44;10.63;;;5.70;;
27893;SDS011;15240;50.812;4.792;2023-03-12T02:20:21;14.53;;;5.57;;
27893;SDS011;15240;50.812;4.792;2023-03-12T02:22:51;14.20;;;6.17;;
27893;SDS011;15240;50.812;4.792;2023-03-12T02:25:20;12.13;;;5.60;;
27893;SDS011;15240;50.812;4.792;2023-03-12T02:27:49;11.97;;;5.63;;
27893;SDS011;15240;50.812;4.792;2023-03-12T02:30:15;12.93;;;5.83;;
27893;SDS011;15240;50.812;4.792;2023-03-12T02:32:42;13.17;;;5.90;;
27893;SDS011;15240;50.812;4.792;2023-03-12T02:35:09;10.77;;;5.47;;
27893;SDS011;15240;50.812;4.792;2023-03-12T02:37:35;14.63;;;5.40;;
27893;SDS011;15240;50.812;4.792;2023-03-12T02:40:03;12.37;;;5.63;;
27893;SDS011;15240;50.812;4.792;2023-03-12T02:42:29;9.27;;;5.70;;
27893;SDS011;15240;50.812;4.792;2023-03-12T02:44:57;12.90;;;5.50;;
27893;SDS011;15240;50.812;4.792;2023-03-12T02:47:23;13.20;;;5.20;;
27893;SDS011;15240;50.812;4.792;2023-03-12T02:49:49;8.53;;;5.00;;
27893;SDS011;15240;50.812;4.792;2023-03-12T02:52:16;8.00;;;4.80;;
27893;SDS011;15240;50.812;4.792;2023-03-12T02:54:42;9.87;;;5.23;;
27893;SDS011;15240;50.812;4.792;2023-03-12T02:57:08;10.23;;;4.90;;
27893;SDS011;15240;50.812;4.792;2023-03-12T02:59:34;10.90;;;4.93;;
27893;SDS011;15240;50.812;4.792;2023-03-12T03:02:01;13.57;;;5.20;;
27893;SDS011;15240;50.812;4.792;2023-03-12T03:04:27;13.40;;;5.00;;
27893;SDS011;15240;50.812;4.792;2023-03-12T03:06:53;12.27;;;5.07;;
27893;SDS011;15240;50.812;4.792;2023-03-12T03:09:20;9.77;;;4.57;;
27893;SDS011;15240;50.812;4.792;2023-03-12T03:11:46;11.27;;;4.67;;
27893;SDS011;15240;50.812;4.792;2023-03-12T03:14:12;12.17;;;4.90;;
27893;SDS011;15240;50.812;4.792;2023-03-12T03:16:38;12.20;;;4.63;;
27893;SDS011;15240;50.812;4.792;2023-03-12T03:19:05;11.13;;;5.13;;
27893;SDS011;15240;50.812;4.792;2023-03-12T03:21:31;9.27;;;4.90;;
27893;SDS011;15240;50.812;4.792;2023-03-12T03:23:58;12.83;;;5.30;;
27893;SDS011;15240;50.812;4.792;2023-03-12T03:26:24;9.43;;;4.50;;
27893;SDS011;15240;50.812;4.792;2023-03-12T03:28:50;12.53;;;5.30;;
27893;SDS011;15240;50.812;4.792;2023-03-12T03:31:17;11.90;;;4.87;;
27893;SDS011;15240;50.812;4.792;2023-03-12T03:33:43;11.70;;;4.73;;
27893;SDS011;15240;50.812;4.792;2023-03-12T03:36:09;10.83;;;4.63;;
27893;SDS011;15240;50.812;4.792;2023-03-12T03:38:35;11.30;;;4.97;;
27893;SDS011;15240;50.812;4.792;2023-03-12T03:41:01;13.27;;;5.10;;
27893;SDS011;15240;50.812;4.792;2023-03-12T03:43:28;10.27;;;4.67;;
27893;SDS011;15240;50.812;4.792;2023-03-12T03:45:57;11.47;;;4.83;;
27893;SDS011;15240;50.812;4.792;2023-03-12T03:48:24;15.00;;;5.20;;
27893;SDS011;15240;50.812;4.792;2023-03-12T03:50:50;11.80;;;5.60;;
27893;SDS011;15240;50.812;4.792;2023-03-12T03:53:16;10.60;;;5.13;;
27893;SDS011;15240;50.812;4.792;2023-03-12T03:55:45;9.67;;;5.07;;
27893;SDS011;15240;50.812;4.792;2023-03-12T03:58:12;10.40;;;4.63;;
27893;SDS011;15240;50.812;4.792;2023-03-12T04:00:38;10.03;;;5.30;;
27893;SDS011;15240;50.812;4.792;2023-03-12T04:03:04;12.07;;;4.80;;
27893;SDS011;15240;50.812;4.792;2023-03-12T04:05:31;10.70;;;5.50;;
27893;SDS011;15240;50.812;4.792;2023-03-12T04:07:57;9.13;;;5.17;;
27893;SDS011;15240;50.812;4.792;2023-03-12T04:10:27;9.60;;;5.60;;
27893;SDS011;15240;50.812;4.792;2023-03-12T04:12:53;12.43;;;5.30;;
27893;SDS011;15240;50.812;4.792;2023-03-12T04:15:19;10.47;;;5.20;;
27893;SDS011;15240;50.812;4.792;2023-03-12T04:17:45;7.43;;;5.23;;
27893;SDS011;15240;50.812;4.792;2023-03-12T04:20:11;8.37;;;5.20;;
27893;SDS011;15240;50.812;4.792;2023-03-12T04:22:38;13.70;;;5.50;;
27893;SDS011;15240;50.812;4.792;2023-03-12T04:25:04;10.13;;;5.60;;
27893;SDS011;15240;50.812;4.792;2023-03-12T04:27:31;9.40;;;5.23;;
27893;SDS011;15240;50.812;4.792;2023-03-12T04:29:57;9.23;;;5.50;;
27893;SDS011;15240;50.812;4.792;2023-03-12T04:32:23;10.77;;;6.03;;
27893;SDS011;15240;50.812;4.792;2023-03-12T04:34:49;9.07;;;6.03;;
27893;SDS011;15240;50.812;4.792;2023-03-12T04:37:15;12.33;;;6.33;;
27893;SDS011;15240;50.812;4.792;2023-03-12T04:39:42;11.83;;;5.80;;
27893;SDS011;15240;50.812;4.792;2023-03-12T04:42:08;14.50;;;6.20;;
27893;SDS011;15240;50.812;4.792;2023-03-12T04:44:35;12.10;;;6.70;;
27893;SDS011;15240;50.812;4.792;2023-03-12T04:47:01;13.60;;;6.30;;
27893;SDS011;15240;50.812;4.792;2023-03-12T04:49:27;12.30;;;6.37;;
27893;SDS011;15240;50.812;4.792;2023-03-12T04:51:53;11.47;;;6.60;;
27893;SDS011;15240;50.812;4.792;2023-03-12T04:54:20;13.97;;;6.87;;
27893;SDS011;15240;50.812;4.792;2023-03-12T04:56:47;10.90;;;7.27;;
27893;SDS011;15240;50.812;4.792;2023-03-12T04:59:13;12.10;;;6.90;;
27893;SDS011;15240;50.812;4.792;2023-03-12T05:01:39;11.07;;;6.57;;
27893;SDS011;15240;50.812;4.792;2023-03-12T05:04:05;12.23;;;7.17;;
27893;SDS011;15240;50.812;4.792;2023-03-12T05:06:32;15.07;;;7.40;;
27893;SDS011;15240;50.812;4.792;2023-03-12T05:08:58;10.47;;;6.50;;
27893;SDS011;15240;50.812;4.792;2023-03-12T05:11:24;10.33;;;6.67;;
27893;SDS011;15240;50.812;4.792;2023-03-12T05:13:50;11.77;;;6.70;;
27893;SDS011;15240;50.812;4.792;2023-03-12T05:16:16;12.47;;;7.47;;
27893;SDS011;15240;50.812;4.792;2023-03-12T05:18:43;12.90;;;7.23;;
27893;SDS011;15240;50.812;4.792;2023-03-12T05:21:13;15.10;;;7.50;;
27893;SDS011;15240;50.812;4.792;2023-03-12T05:23:39;12.93;;;7.53;;
27893;SDS011;15240;50.812;4.792;2023-03-12T05:26:23;16.33;;;7.67;;
27893;SDS011;15240;50.812;4.792;2023-03-12T05:28:51;15.83;;;8.73;;
27893;SDS011;15240;50.812;4.792;2023-03-12T05:31:17;15.27;;;8.60;;
27893;SDS011;15240;50.812;4.792;2023-03-12T05:33:44;14.77;;;8.70;;
27893;SDS011;15240;50.812;4.792;2023-03-12T05:36:10;16.97;;;9.33;;
27893;SDS011;15240;50.812;4.792;2023-03-12T05:38:37;17.03;;;9.80;;
27893;SDS011;15240;50.812;4.792;2023-03-12T05:41:03;17.87;;;10.47;;
27893;SDS011;15240;50.812;4.792;2023-03-12T05:43:29;19.03;;;10.27;;
27893;SDS011;15240;50.812;4.792;2023-03-12T05:45:59;19.30;;;10.40;;
27893;SDS011;15240;50.812;4.792;2023-03-12T05:48:26;19.83;;;11.00;;
27893;SDS011;15240;50.812;4.792;2023-03-12T05:50:52;17.17;;;11.33;;
27893;SDS011;15240;50.812;4.792;2023-03-12T05:53:18;17.00;;;11.30;;
27893;SDS011;15240;50.812;4.792;2023-03-12T05:55:44;17.63;;;11.23;;
27893;SDS011;15240;50.812;4.792;2023-03-12T05:58:10;20.47;;;12.00;;
27893;SDS011;15240;50.812;4.792;2023-03-12T06:00:36;17.80;;;11.77;;
27893;SDS011;15240;50.812;4.792;2023-03-12T06:03:05;21.13;;;12.07;;
27893;SDS011;15240;50.812;4.792;2023-03-12T06:05:32;21.50;;;12.40;;
27893;SDS011;15240;50.812;4.792;2023-03-12T06:07:58;22.03;;;13.50;;
27893;SDS011;15240;50.812;4.792;2023-03-12T06:10:25;24.17;;;14.53;;
27893;SDS011;15240;50.812;4.792;2023-03-12T06:12:51;25.60;;;14.50;;
27893;SDS011;15240;50.812;4.792;2023-03-12T06:15:17;26.07;;;14.20;;
27893;SDS011;15240;50.812;4.792;2023-03-12T06:17:43;24.43;;;15.20;;
27893;SDS011;15240;50.812;4.792;2023-03-12T06:20:09;23.33;;;14.67;;
27893;SDS011;15240;50.812;4.792;2023-03-12T06:22:35;29.50;;;14.87;;
27893;SDS011;15240;50.812;4.792;2023-03-12T06:25:02;23.30;;;15.03;;
27893;SDS011;15240;50.812;4.792;2023-03-12T06:27:29;30.80;;;15.57;;
27893;SDS011;15240;50.812;4.792;2023-03-12T06:29:55;23.50;;;14.63;;
27893;SDS011;15240;50.812;4.792;2023-03-12T06:32:21;23.60;;;15.23;;
27893;SDS011;15240;50.812;4.792;2023-03-12T06:34:47;23.40;;;15.87;;
27893;SDS011;15240;50.812;4.792;2023-03-12T06:37:13;29.20;;;16.93;;
27893;SDS011;15240;50.812;4.792;2023-03-12T06:39:39;27.80;;;16.27;;
27893;SDS011;15240;50.812;4.792;2023-03-12T06:42:05;27.03;;;15.57;;
27893;SDS011;15240;50.812;4.792;2023-03-12T06:44:32;24.97;;;16.60;;
27893;SDS011;15240;50.812;4.792;2023-03-12T06:46:58;25.73;;;15.90;;
27893;SDS011;15240;50.812;4.792;2023-03-12T06:49:24;28.17;;;16.57;;
27893;SDS011;15240;50.812;4.792;2023-03-12T06:51:51;30.00;;;17.00;;
27893;SDS011;15240;50.812;4.792;2023-03-12T06:54:17;27.50;;;16.93;;
27893;SDS011;15240;50.812;4.792;2023-03-12T06:56:43;27.83;;;16.53;;
27893;SDS011;15240;50.812;4.792;2023-03-12T06:59:10;29.67;;;17.33;;
27893;SDS011;15240;50.812;4.792;2023-03-12T07:01:36;28.50;;;16.77;;
27893;SDS011;15240;50.812;4.792;2023-03-12T07:04:02;29.13;;;17.03;;
27893;SDS011;15240;50.812;4.792;2023-03-12T07:06:28;30.07;;;17.10;;
27893;SDS011;15240;50.812;4.792;2023-03-12T07:08:54;31.23;;;16.83;;
27893;SDS011;15240;50.812;4.792;2023-03-12T07:11:20;28.17;;;16.60;;
27893;SDS011;15240;50.812;4.792;2023-03-12T07:13:46;32.93;;;17.27;;
27893;SDS011;15240;50.812;4.792;2023-03-12T07:16:12;32.83;;;18.07;;
27893;SDS011;15240;50.812;4.792;2023-03-12T07:18:38;30.40;;;16.97;;
27893;SDS011;15240;50.812;4.792;2023-03-12T07:21:04;30.60;;;17.50;;
27893;SDS011;15240;50.812;4.792;2023-03-12T07:23:30;35.87;;;18.67;;
27893;SDS011;15240;50.812;4.792;2023-03-12T07:25:57;30.67;;;16.97;;
27893;SDS011;15240;50.812;4.792;2023-03-12T07:28:23;34.77;;;18.20;;
27893;SDS011;15240;50.812;4.792;2023-03-12T07:30:49;37.17;;;18.40;;
27893;SDS011;15240;50.812;4.792;2023-03-12T07:33:19;39.90;;;18.10;;
27893;SDS011;15240;50.812;4.792;2023-03-12T07:35:46;35.90;;;17.67;;
27893;SDS011;15240;50.812;4.792;2023-03-12T07:38:12;38.20;;;18.17;;
27893;SDS011;15240;50.812;4.792;2023-03-12T07:40:38;41.87;;;18.53;;
27893;SDS011;15240;50.812;4.792;2023-03-12T07:43:04;39.43;;;18.90;;
27893;SDS011;15240;50.812;4.792;2023-03-12T07:45:35;39.90;;;18.37;;
27893;SDS011;15240;50.812;4.792;2023-03-12T07:48:02;35.43;;;17.73;;
27893;SDS011;15240;50.812;4.792;2023-03-12T07:50:28;35.87;;;18.30;;
27893;SDS011;15240;50.812;4.792;2023-03-12T07:52:54;34.00;;;16.73;;
27893;SDS011;15240;50.812;4.792;2023-03-12T07:55:20;37.60;;;16.77;;
27893;SDS011;15240;50.812;4.792;2023-03-12T07:57:46;41.80;;;16.57;;
27893;SDS011;15240;50.812;4.792;2023-03-12T08:00:12;37.10;;;17.07;;
27893;SDS011;15240;50.812;4.792;2023-03-12T08:02:39;31.23;;;16.20;;
27893;SDS011;15240;50.812;4.792;2023-03-12T08:05:06;37.57;;;16.90;;
27893;SDS011;15240;50.812;4.792;2023-03-12T08:07:32;35.57;;;16.27;;
27893;SDS011;15240;50.812;4.792;2023-03-12T08:09:59;34.77;;;16.20;;
27893;SDS011;15240;50.812;4.792;2023-03-12T08:12:25;34.17;;;15.30;;
27893;SDS011;15240;50.812;4.792;2023-03-12T08:14:51;34.57;;;15.93;;
27893;SDS011;15240;50.812;4.792;2023-03-12T08:17:17;38.20;;;15.90;;
27893;SDS011;15240;50.812;4.792;2023-03-12T08:19:44;35.27;;;15.03;;
27893;SDS011;15240;50.812;4.792;2023-03-12T08:22:10;30.67;;;15.07;;
27893;SDS011;15240;50.812;4.792;2023-03-12T08:24:36;42.37;;;15.83;;
27893;SDS011;15240;50.812;4.792;2023-03-12T08:27:02;39.70;;;16.47;;
27893;SDS011;15240;50.812;4.792;2023-03-12T08:29:28;45.00;;;17.70;;
27893;SDS011;15240;50.812;4.792;2023-03-12T08:31:54;42.63;;;16.30;;
27893;SDS011;15240;50.812;4.792;2023-03-12T08:34:21;54.03;;;17.53;;
27893;SDS011;15240;50.812;4.792;2023-03-12T08:36:47;60.13;;;18.33;;
27893;SDS011;15240;50.812;4.792;2023-03-12T08:39:13;61.90;;;18.37;;
27893;SDS011;15240;50.812;4.792;2023-03-12T08:41:39;56.53;;;18.17;;
27893;SDS011;15240;50.812;4.792;2023-03-12T08:44:05;61.27;;;18.67;;
27893;SDS011;15240;50.812;4.792;2023-03-12T08:46:31;65.27;;;19.30;;
27893;SDS011;15240;50.812;4.792;2023-03-12T08:48:57;74.63;;;19.93;;
27893;SDS011;15240;50.812;4.792;2023-03-12T08:51:23;64.60;;;18.60;;
27893;SDS011;15240;50.812;4.792;2023-03-12T08:53:49;68.87;;;18.97;;
27893;SDS011;15240;50.812;4.792;2023-03-12T08:56:16;67.30;;;20.23;;
27893;SDS011;15240;50.812;4.792;2023-03-12T08:58:42;66.73;;;18.77;;
27893;SDS011;15240;50.812;4.792;2023-03-12T09:01:09;70.00;;;19.97;;
27893;SDS011;15240;50.812;4.792;2023-03-12T09:03:35;66.20;;;20.13;;
27893;SDS011;15240;50.812;4.792;2023-03-12T09:06:11;71.27;;;19.20;;
27893;SDS011;15240;50.812;4.792;2023-03-12T09:08:40;84.73;;;18.73;;
27893;SDS011;15240;50.812;4.792;2023-03-12T09:11:07;72.23;;;18.50;;
27893;SDS011;15240;50.812;4.792;2023-03-12T09:13:33;64.80;;;18.63;;
27893;SDS011;15240;50.812;4.792;2023-03-12T09:15:59;62.13;;;18.00;;
27893;SDS011;15240;50.812;4.792;2023-03-12T09:18:27;60.40;;;17.20;;
27893;SDS011;15240;50.812;4.792;2023-03-12T09:20:53;64.63;;;17.47;;
27893;SDS011;15240;50.812;4.792;2023-03-12T09:23:19;58.00;;;17.03;;
27893;SDS011;15240;50.812;4.792;2023-03-12T09:25:46;53.47;;;15.23;;
27893;SDS011;15240;50.812;4.792;2023-03-12T09:28:12;57.77;;;14.50;;
27893;SDS011;15240;50.812;4.792;2023-03-12T09:30:38;53.63;;;13.60;;
27893;SDS011;15240;50.812;4.792;2023-03-12T09:33:05;49.90;;;13.67;;
27893;SDS011;15240;50.812;4.792;2023-03-12T09:35:31;42.70;;;12.07;;
27893;SDS011;15240;50.812;4.792;2023-03-12T09:37:57;48.10;;;12.50;;
27893;SDS011;15240;50.812;4.792;2023-03-12T09:40:24;46.00;;;11.93;;
27893;SDS011;15240;50.812;4.792;2023-03-12T09:45:49;48.83;;;11.07;;
27893;SDS011;15240;50.812;4.792;2023-03-12T09:48:23;38.47;;;10.20;;
27893;SDS011;15240;50.812;4.792;2023-03-12T09:50:51;39.47;;;9.80;;
27893;SDS011;15240;50.812;4.792;2023-03-12T09:55:54;40.87;;;9.90;;
27893;SDS011;15240;50.812;4.792;2023-03-12T09:58:24;46.97;;;10.07;;
27893;SDS011;15240;50.812;4.792;2023-03-12T10:00:51;47.77;;;10.07;;
27893;SDS011;15240;50.812;4.792;2023-03-12T10:11:38;43.53;;;8.53;;
27893;SDS011;15240;50.812;4.792;2023-03-12T10:14:15;35.87;;;8.67;;
27893;SDS011;15240;50.812;4.792;2023-03-12T10:19:18;44.70;;;9.90;;
27893;SDS011;15240;50.812;4.792;2023-03-12T10:24:40;38.70;;;9.17;;
27893;SDS011;15240;50.812;4.792;2023-03-12T10:27:10;45.20;;;9.63;;
27893;SDS011;15240;50.812;4.792;2023-03-12T10:29:38;42.37;;;9.43;;
27893;SDS011;15240;50.812;4.792;2023-03-12T10:32:16;39.03;;;9.10;;
27893;SDS011;15240;50.812;4.792;2023-03-12T10:34:45;44.23;;;9.37;;
27893;SDS011;15240;50.812;4.792;2023-03-12T10:37:22;41.93;;;9.23;;
27893;SDS011;15240;50.812;4.792;2023-03-12T10:39:50;36.33;;;9.67;;
27893;SDS011;15240;50.812;4.792;2023-03-12T10:42:18;39.37;;;8.57;;
27893;SDS011;15240;50.812;4.792;2023-03-12T10:44:48;40.73;;;9.43;;
27893;SDS011;15240;50.812;4.792;2023-03-12T10:49:41;39.07;;;8.50;;
27893;SDS011;15240;50.812;4.792;2023-03-12T10:52:15;42.80;;;9.03;;
27893;SDS011;15240;50.812;4.792;2023-03-12T10:54:42;39.13;;;8.93;;
27893;SDS011;15240;50.812;4.792;2023-03-12T10:57:09;38.73;;;8.57;;
27893;SDS011;15240;50.812;4.792;2023-03-12T10:59:37;39.60;;;8.43;;
27893;SDS011;15240;50.812;4.792;2023-03-12T11:04:51;38.90;;;8.83;;
27893;SDS011;15240;50.812;4.792;2023-03-12T11:07:20;37.47;;;8.40;;
27893;SDS011;15240;50.812;4.792;2023-03-12T11:10:01;34.33;;;7.90;;
27893;SDS011;15240;50.812;4.792;2023-03-12T11:12:28;35.23;;;8.20;;
27893;SDS011;15240;50.812;4.792;2023-03-12T11:14:55;33.43;;;7.50;;
27893;SDS011;15240;50.812;4.792;2023-03-12T11:17:22;33.30;;;7.87;;
27893;SDS011;15240;50.812;4.792;2023-03-12T11:19:49;35.07;;;7.47;;
27893;SDS011;15240;50.812;4.792;2023-03-12T11:22:29;31.63;;;7.70;;
27893;SDS011;15240;50.812;4.792;2023-03-12T11:25:00;37.17;;;7.73;;
27893;SDS011;15240;50.812;4.792;2023-03-12T11:30:02;28.67;;;8.07;;
27893;SDS011;15240;50.812;4.792;2023-03-12T11:32:35;31.07;;;7.37;;
27893;SDS011;15240;50.812;4.792;2023-03-12T11:35:02;34.87;;;6.90;;
27893;SDS011;15240;50.812;4.792;2023-03-12T11:58:22;34.30;;;6.43;;
27893;SDS011;15240;50.812;4.792;2023-03-12T12:04:02;34.13;;;7.03;;
27893;SDS011;15240;50.812;4.792;2023-03-12T12:13:59;32.77;;;7.57;;
27893;SDS011;15240;50.812;4.792;2023-03-12T12:16:50;38.90;;;7.17;;
27893;SDS011;15240;50.812;4.792;2023-03-12T12:27:19;38.47;;;7.13;;
27893;SDS011;15240;50.812;4.792;2023-03-12T12:32:16;32.33;;;6.80;;
27893;SDS011;15240;50.812;4.792;2023-03-12T12:37:29;33.40;;;6.70;;
27893;SDS011;15240;50.812;4.792;2023-03-12T12:42:50;36.67;;;6.73;;
27893;SDS011;15240;50.812;4.792;2023-03-12T12:45:17;35.37;;;6.67;;
27893;SDS011;15240;50.812;4.792;2023-03-12T12:47:46;42.67;;;7.40;;
27893;SDS011;15240;50.812;4.792;2023-03-12T12:50:15;42.50;;;7.37;;
27893;SDS011;15240;50.812;4.792;2023-03-12T12:52:42;31.67;;;6.83;;
27893;SDS011;15240;50.812;4.792;2023-03-12T12:55:15;43.53;;;7.20;;
27893;SDS011;15240;50.812;4.792;2023-03-12T12:57:51;35.30;;;6.70;;
27893;SDS011;15240;50.812;4.792;2023-03-12T13:00:22;36.50;;;7.33;;
27893;SDS011;15240;50.812;4.792;2023-03-12T13:02:50;36.83;;;6.80;;
27893;SDS011;15240;50.812;4.792;2023-03-12T13:05:24;32.70;;;6.33;;
27893;SDS011;15240;50.812;4.792;2023-03-12T13:07:50;32.30;;;6.50;;
27893;SDS011;15240;50.812;4.792;2023-03-12T13:24:05;30.83;;;6.30;;
27893;SDS011;15240;50.812;4.792;2023-03-12T13:29:21;27.93;;;5.70;;
27893;SDS011;15240;50.812;4.792;2023-03-12T13:31:48;27.10;;;4.97;;
27893;SDS011;15240;50.812;4.792;2023-03-12T13:36:40;29.40;;;5.57;;
27893;SDS011;15240;50.812;4.792;2023-03-12T13:41:41;32.43;;;5.53;;
27893;SDS011;15240;50.812;4.792;2023-03-12T13:49:24;26.73;;;5.43;;
27893;SDS011;15240;50.812;4.792;2023-03-12T13:52:36;33.90;;;6.63;;
27893;SDS011;15240;50.812;4.792;2023-03-12T13:54:41;29.60;;;6.00;;
27893;SDS011;15240;50.812;4.792;2023-03-12T13:57:30;27.63;;;5.67;;
27893;SDS011;15240;50.812;4.792;2023-03-12T13:59:55;27.53;;;5.80;;
27893;SDS011;15240;50.812;4.792;2023-03-12T14:02:27;26.03;;;5.13;;
27893;SDS011;15240;50.812;4.792;2023-03-12T14:05:00;31.97;;;5.57;;
27893;SDS011;15240;50.812;4.792;2023-03-12T14:18:19;27.57;;;6.00;;
27893;SDS011;15240;50.812;4.792;2023-03-12T14:20:49;40.40;;;7.00;;
27893;SDS011;15240;50.812;4.792;2023-03-12T14:23:17;30.07;;;5.77;;
27893;SDS011;15240;50.812;4.792;2023-03-12T14:25:45;33.30;;;6.50;;
27893;SDS011;15240;50.812;4.792;2023-03-12T14:28:14;29.47;;;5.73;;
27893;SDS011;15240;50.812;4.792;2023-03-12T14:31:01;21.70;;;5.47;;
27893;SDS011;15240;50.812;4.792;2023-03-12T14:33:35;34.40;;;6.53;;
27893;SDS011;15240;50.812;4.792;2023-03-12T14:36:11;29.47;;;5.93;;
27893;SDS011;15240;50.812;4.792;2023-03-12T14:38:40;32.70;;;5.97;;
27893;SDS011;15240;50.812;4.792;2023-03-12T14:43:40;29.57;;;5.30;;
27893;SDS011;15240;50.812;4.792;2023-03-12T14:46:14;32.00;;;5.60;;
27893;SDS011;15240;50.812;4.792;2023-03-12T14:48:40;29.17;;;5.80;;
27893;SDS011;15240;50.812;4.792;2023-03-12T14:51:06;33.50;;;5.27;;
27893;SDS011;15240;50.812;4.792;2023-03-12T14:53:36;26.77;;;5.20;;
27893;SDS011;15240;50.812;4.792;2023-03-12T14:58:30;30.10;;;5.77;;
27893;SDS011;15240;50.812;4.792;2023-03-12T15:01:00;28.77;;;5.50;;
27893;SDS011;15240;50.812;4.792;2023-03-12T15:03:28;23.87;;;5.13;;
27893;SDS011;15240;50.812;4.792;2023-03-12T15:05:54;29.23;;;5.43;;
27893;SDS011;15240;50.812;4.792;2023-03-12T15:08:20;23.97;;;4.70;;
27893;SDS011;15240;50.812;4.792;2023-03-12T15:10:49;24.87;;;4.50;;
27893;SDS011;15240;50.812;4.792;2023-03-12T15:13:15;23.33;;;4.90;;
27893;SDS011;15240;50.812;4.792;2023-03-12T15:15:43;26.90;;;5.30;;
27893;SDS011;15240;50.812;4.792;2023-03-12T15:18:12;25.73;;;5.10;;
27893;SDS011;15240;50.812;4.792;2023-03-12T15:20:38;26.73;;;5.03;;
27893;SDS011;15240;50.812;4.792;2023-03-12T15:23:05;28.80;;;5.30;;
27893;SDS011;15240;50.812;4.792;2023-03-12T15:25:32;25.03;;;5.30;;
27893;SDS011;15240;50.812;4.792;2023-03-12T15:30:31;29.53;;;5.33;;
27893;SDS011;15240;50.812;4.792;2023-03-12T15:35:37;22.13;;;4.90;;
27893;SDS011;15240;50.812;4.792;2023-03-12T15:38:03;24.33;;;4.47;;
27893;SDS011;15240;50.812;4.792;2023-03-12T15:40:29;23.97;;;4.33;;
27893;SDS011;15240;50.812;4.792;2023-03-12T15:42:56;23.43;;;4.97;;
27893;SDS011;15240;50.812;4.792;2023-03-12T15:47:52;22.03;;;4.50;;
27893;SDS011;15240;50.812;4.792;2023-03-12T15:50:26;22.77;;;4.63;;
27893;SDS011;15240;50.812;4.792;2023-03-12T15:55:23;25.00;;;5.10;;
27893;SDS011;15240;50.812;4.792;2023-03-12T15:57:53;23.63;;;5.03;;
27893;SDS011;15240;50.812;4.792;2023-03-12T16:05:11;25.73;;;4.90;;
27893;SDS011;15240;50.812;4.792;2023-03-12T16:07:37;24.53;;;4.67;;
27893;SDS011;15240;50.812;4.792;2023-03-12T16:10:04;22.57;;;4.53;;
27893;SDS011;15240;50.812;4.792;2023-03-12T16:12:30;24.63;;;5.10;;
27893;SDS011;15240;50.812;4.792;2023-03-12T16:14:56;19.10;;;4.80;;
27893;SDS011;15240;50.812;4.792;2023-03-12T16:17:22;27.20;;;5.63;;
27893;SDS011;15240;50.812;4.792;2023-03-12T16:19:48;27.50;;;4.30;;
27893;SDS011;15240;50.812;4.792;2023-03-12T16:22:14;29.10;;;5.13;;
27893;SDS011;15240;50.812;4.792;2023-03-12T16:24:41;23.63;;;4.60;;
27893;SDS011;15240;50.812;4.792;2023-03-12T16:27:11;23.67;;;5.17;;
27893;SDS011;15240;50.812;4.792;2023-03-12T16:29:38;25.07;;;5.03;;
27893;SDS011;15240;50.812;4.792;2023-03-12T16:32:12;28.03;;;5.23;;
27893;SDS011;15240;50.812;4.792;2023-03-12T16:34:38;29.47;;;5.10;;
27893;SDS011;15240;50.812;4.792;2023-03-12T16:37:05;30.77;;;5.90;;
27893;SDS011;15240;50.812;4.792;2023-03-12T16:39:31;26.60;;;4.93;;
27893;SDS011;15240;50.812;4.792;2023-03-12T16:41:57;25.17;;;5.53;;
27893;SDS011;15240;50.812;4.792;2023-03-12T16:44:23;27.40;;;5.63;;
27893;SDS011;15240;50.812;4.792;2023-03-12T16:46:50;32.23;;;11.40;;
27893;SDS011;15240;50.812;4.792;2023-03-12T16:49:17;38.23;;;13.43;;
27893;SDS011;15240;50.812;4.792;2023-03-12T16:51:44;28.07;;;7.47;;